Time;durP1;ratioP1;P1;durP2;ratioP2;P2;SDS_P1;SDS_P2;PMS_P1;PMS_P2;Temp;Humidity;BMP_temperature;BMP_pressure;BME280_temperature;BME280_humidity;BME280_pressure;Samples;Min_cycle;Max_cycle;Signal;HPM_P1;HPM_P2
2021/02/20 00:00:41;;;;;;;11.65;8;;;;;;;2.67;100;95481.8;;;;
2021/02/20 00:01:42;;;;;;;15;9.8;;;;;;;2.8;100;95478;;;;
2021/02/20 00:02:42;;;;;;;15;9.8;;;;;;;2.8;100;95478;;;;
2021/02/20 00:03:43;;;;;;;15;9.8;;;;;;;2.8;100;95478;;;;
2021/02/20 00:04:43;;;;;;;15;9.8;;;;;;;2.8;100;95478;;;;
2021/02/20 00:05:44;;;;;;;15;9.8;;;;;;;2.8;100;95478;;;;
2021/02/20 00:06:45;;;;;;;15;9.8;;;;;;;2.8;100;95478;;;;
2021/02/20 00:07:45;;;;;;;15;9.8;;;;;;;2.8;100;95478;;;;
2021/02/20 00:08:46;;;;;;;15;9.8;;;;;;;2.8;100;95478;;;;
2021/02/20 00:09:46;;;;;;;15;9.8;;;;;;;2.8;100;95478;;;;
2021/02/20 00:10:47;;;;;;;15;9.8;;;;;;;2.8;100;95478;;;;
2021/02/20 00:11:47;;;;;;;13.55;9.449999;;;;;;;3.18;100;95473.8;;;;
2021/02/20 00:12:48;;;;;;;13.55;9.449999;;;;;;;3.18;100;95473.8;;;;
2021/02/20 00:13:48;;;;;;;13.55;9.449999;;;;;;;3.18;100;95473.8;;;;
2021/02/20 00:14:50;;;;;;;13.55;9.449999;;;;;;;3.18;100;95473.8;;;;
2021/02/20 00:15:50;;;;;;;13.55;9.449999;;;;;;;3.18;100;95473.8;;;;
2021/02/20 00:16:51;;;;;;;13.55;9.449999;;;;;;;3.18;100;95473.8;;;;
2021/02/20 00:17:51;;;;;;;13.55;9.449999;;;;;;;3.18;100;95473.8;;;;
2021/02/20 00:18:52;;;;;;;13.55;9.449999;;;;;;;3.18;100;95473.8;;;;
2021/02/20 00:19:52;;;;;;;13.55;9.449999;;;;;;;3.18;100;95473.8;;;;
2021/02/20 00:20:53;;;;;;;13.55;9.449999;;;;;;;3.18;100;95473.8;;;;
2021/02/20 00:21:53;;;;;;;13.55;9.449999;;;;;;;3.18;100;95473.8;;;;
2021/02/20 00:22:56;;;;;;;12.55;7.75;;;;;;;3.61;100;95471.96;;;;
2021/02/20 00:23:57;;;;;;;12.55;7.75;;;;;;;3.61;100;95471.96;;;;
2021/02/20 00:24:57;;;;;;;12.55;7.75;;;;;;;3.61;100;95471.96;;;;
2021/02/20 00:25:58;;;;;;;12.55;7.75;;;;;;;3.61;100;95471.96;;;;
2021/02/20 00:26:58;;;;;;;12.55;7.75;;;;;;;3.61;100;95471.96;;;;
2021/02/20 00:27:59;;;;;;;12.55;7.75;;;;;;;3.61;100;95471.96;;;;
2021/02/20 00:28:59;;;;;;;12.55;7.75;;;;;;;3.61;100;95471.96;;;;
2021/02/20 00:30:00;;;;;;;12.55;7.75;;;;;;;3.61;100;95471.96;;;;
2021/02/20 00:31:01;;;;;;;12.55;7.75;;;;;;;3.61;100;95471.96;;;;
2021/02/20 00:32:01;;;;;;;12.55;7.75;;;;;;;3.61;100;95471.96;;;;
2021/02/20 00:33:02;;;;;;;6.35;5.05;;;;;;;3.96;100;95469.75;;;;
2021/02/20 00:34:04;;;;;;;6.35;5.05;;;;;;;3.96;100;95469.75;;;;
2021/02/20 00:35:04;;;;;;;6.35;5.05;;;;;;;3.96;100;95469.75;;;;
2021/02/20 00:36:06;;;;;;;6.35;5.05;;;;;;;3.96;100;95469.75;;;;
2021/02/20 00:37:07;;;;;;;6.35;5.05;;;;;;;3.96;100;95469.75;;;;
2021/02/20 00:38:07;;;;;;;6.35;5.05;;;;;;;3.96;100;95469.75;;;;
2021/02/20 00:39:08;;;;;;;6.35;5.05;;;;;;;3.96;100;95469.75;;;;
2021/02/20 00:40:08;;;;;;;6.35;5.05;;;;;;;3.96;100;95469.75;;;;
2021/02/20 00:41:11;;;;;;;6.35;5.05;;;;;;;3.96;100;95469.75;;;;
2021/02/20 00:42:12;;;;;;;6.35;5.05;;;;;;;3.96;100;95469.75;;;;
2021/02/20 00:43:12;;;;;;;6.35;5.05;;;;;;;3.96;100;95469.75;;;;
2021/02/20 00:44:13;;;;;;;4.75;3.8;;;;;;;4.24;100;95463.55;;;;
2021/02/20 00:45:13;;;;;;;4.75;3.8;;;;;;;4.24;100;95463.55;;;;
2021/02/20 00:46:17;;;;;;;4.75;3.8;;;;;;;4.24;100;95463.55;;;;
2021/02/20 00:47:17;;;;;;;4.75;3.8;;;;;;;4.24;100;95463.55;;;;
2021/02/20 00:48:18;;;;;;;4.75;3.8;;;;;;;4.24;100;95463.55;;;;
2021/02/20 00:49:19;;;;;;;4.75;3.8;;;;;;;4.24;100;95463.55;;;;
2021/02/20 00:50:19;;;;;;;4.75;3.8;;;;;;;4.24;100;95463.55;;;;
2021/02/20 00:51:20;;;;;;;4.75;3.8;;;;;;;4.24;100;95463.55;;;;
2021/02/20 00:52:21;;;;;;;4.75;3.8;;;;;;;4.24;100;95463.55;;;;
2021/02/20 00:53:21;;;;;;;4.75;3.8;;;;;;;4.24;100;95463.55;;;;
2021/02/20 00:54:22;;;;;;;4.05;3;;;;;;;4.38;100;95469.31;;;;
2021/02/20 00:55:22;;;;;;;4.05;3;;;;;;;4.38;100;95469.31;;;;
2021/02/20 00:56:23;;;;;;;4.05;3;;;;;;;4.38;100;95469.31;;;;
2021/02/20 00:57:23;;;;;;;4.05;3;;;;;;;4.38;100;95469.31;;;;
2021/02/20 00:58:24;;;;;;;4.05;3;;;;;;;4.38;100;95469.31;;;;
2021/02/20 00:59:24;;;;;;;4.05;3;;;;;;;4.38;100;95469.31;;;;
2021/02/20 01:00:25;;;;;;;4.05;3;;;;;;;4.38;100;95469.31;;;;
2021/02/20 01:01:26;;;;;;;4.05;3;;;;;;;4.38;100;95469.31;;;;
2021/02/20 01:02:27;;;;;;;4.05;3;;;;;;;4.38;100;95469.31;;;;
2021/02/20 01:03:27;;;;;;;4.05;3;;;;;;;4.38;100;95469.31;;;;
2021/02/20 01:04:28;;;;;;;4.05;3;;;;;;;4.38;100;95469.31;;;;
2021/02/20 01:05:28;;;;;;;3.7;2.7;;;;;;;4.54;100;95468.19;;;;
2021/02/20 01:06:29;;;;;;;3.7;2.7;;;;;;;4.54;100;95468.19;;;;
2021/02/20 01:07:30;;;;;;;3.7;2.7;;;;;;;4.54;100;95468.19;;;;
2021/02/20 01:08:30;;;;;;;3.7;2.7;;;;;;;4.54;100;95468.19;;;;
2021/02/20 01:09:30;;;;;;;3.7;2.7;;;;;;;4.54;100;95468.19;;;;
2021/02/20 01:10:31;;;;;;;3.7;2.7;;;;;;;4.54;100;95468.19;;;;
2021/02/20 01:11:32;;;;;;;3.7;2.7;;;;;;;4.54;100;95468.19;;;;
2021/02/20 01:12:33;;;;;;;3.7;2.7;;;;;;;4.54;100;95468.19;;;;
2021/02/20 01:13:34;;;;;;;3.7;2.7;;;;;;;4.54;100;95468.19;;;;
2021/02/20 01:14:34;;;;;;;3.7;2.7;;;;;;;4.54;100;95468.19;;;;
2021/02/20 01:15:35;;;;;;;4.3;2.6;;;;;;;4.72;100;95459.58;;;;
2021/02/20 01:16:36;;;;;;;4.3;2.6;;;;;;;4.72;100;95459.58;;;;
2021/02/20 01:17:36;;;;;;;4.3;2.6;;;;;;;4.72;100;95459.58;;;;
2021/02/20 01:18:37;;;;;;;4.3;2.6;;;;;;;4.72;100;95459.58;;;;
2021/02/20 01:19:37;;;;;;;4.3;2.6;;;;;;;4.72;100;95459.58;;;;
2021/02/20 01:20:38;;;;;;;4.3;2.6;;;;;;;4.72;100;95459.58;;;;
2021/02/20 01:21:38;;;;;;;4.3;2.6;;;;;;;4.72;100;95459.58;;;;
2021/02/20 01:22:39;;;;;;;4.3;2.6;;;;;;;4.72;100;95459.58;;;;
2021/02/20 01:23:40;;;;;;;4.3;2.6;;;;;;;4.72;100;95459.58;;;;
2021/02/20 01:24:40;;;;;;;4.3;2.6;;;;;;;4.72;100;95459.58;;;;
2021/02/20 01:25:41;;;;;;;4.3;2.6;;;;;;;4.72;100;95459.58;;;;
2021/02/20 01:26:41;;;;;;;2.6;2.1;;;;;;;4.94;100;95470.12;;;;
2021/02/20 01:27:42;;;;;;;2.6;2.1;;;;;;;4.94;100;95470.12;;;;
2021/02/20 01:28:43;;;;;;;2.6;2.1;;;;;;;4.94;100;95470.12;;;;
2021/02/20 01:29:43;;;;;;;2.6;2.1;;;;;;;4.94;100;95470.12;;;;
2021/02/20 01:30:43;;;;;;;2.6;2.1;;;;;;;4.94;100;95470.12;;;;
2021/02/20 01:31:44;;;;;;;2.6;2.1;;;;;;;4.94;100;95470.12;;;;
2021/02/20 01:32:45;;;;;;;2.6;2.1;;;;;;;4.94;100;95470.12;;;;
2021/02/20 01:33:45;;;;;;;2.6;2.1;;;;;;;4.94;100;95470.12;;;;
2021/02/20 01:34:46;;;;;;;2.6;2.1;;;;;;;4.94;100;95470.12;;;;
2021/02/20 01:35:46;;;;;;;2.6;2.1;;;;;;;4.94;100;95470.12;;;;
2021/02/20 01:36:47;;;;;;;2.6;2.1;;;;;;;4.94;100;95470.12;;;;
2021/02/20 01:37:47;;;;;;;3.8;2;;;;;;;5.16;100;95478.89;;;;
2021/02/20 01:38:48;;;;;;;3.8;2;;;;;;;5.16;100;95478.89;;;;
2021/02/20 01:39:48;;;;;;;3.8;2;;;;;;;5.16;100;95478.89;;;;
2021/02/20 01:40:49;;;;;;;3.8;2;;;;;;;5.16;100;95478.89;;;;
2021/02/20 01:41:50;;;;;;;3.8;2;;;;;;;5.16;100;95478.89;;;;
2021/02/20 01:42:50;;;;;;;3.8;2;;;;;;;5.16;100;95478.89;;;;
2021/02/20 01:43:51;;;;;;;3.8;2;;;;;;;5.16;100;95478.89;;;;
2021/02/20 01:44:51;;;;;;;3.8;2;;;;;;;5.16;100;95478.89;;;;
2021/02/20 01:45:52;;;;;;;3.8;2;;;;;;;5.16;100;95478.89;;;;
2021/02/20 01:46:52;;;;;;;3.8;2;;;;;;;5.16;100;95478.89;;;;
2021/02/20 01:47:53;;;;;;;3.6;1.9;;;;;;;5.33;100;95480.11;;;;
2021/02/20 01:48:54;;;;;;;3.6;1.9;;;;;;;5.33;100;95480.11;;;;
2021/02/20 01:49:54;;;;;;;3.6;1.9;;;;;;;5.33;100;95480.11;;;;
2021/02/20 01:50:55;;;;;;;3.6;1.9;;;;;;;5.33;100;95480.11;;;;
2021/02/20 01:51:55;;;;;;;3.6;1.9;;;;;;;5.33;100;95480.11;;;;
2021/02/20 01:52:56;;;;;;;3.6;1.9;;;;;;;5.33;100;95480.11;;;;
2021/02/20 01:53:57;;;;;;;3.6;1.9;;;;;;;5.33;100;95480.11;;;;
2021/02/20 01:54:58;;;;;;;3.6;1.9;;;;;;;5.33;100;95480.11;;;;
2021/02/20 01:55:59;;;;;;;3.6;1.9;;;;;;;5.33;100;95480.11;;;;
2021/02/20 01:56:59;;;;;;;3.6;1.9;;;;;;;5.33;100;95480.11;;;;
2021/02/20 01:58:01;;;;;;;3.6;1.9;;;;;;;5.33;100;95480.11;;;;
2021/02/20 01:59:02;;;;;;;2.85;1.9;;;;;;;5.46;100;95479.85;;;;
2021/02/20 02:00:03;;;;;;;2.85;1.9;;;;;;;5.46;100;95479.85;;;;
2021/02/20 02:01:05;;;;;;;2.85;1.9;;;;;;;5.46;100;95479.85;;;;
2021/02/20 02:02:07;;;;;;;2.85;1.9;;;;;;;5.46;100;95479.85;;;;
2021/02/20 02:03:10;;;;;;;2.85;1.9;;;;;;;5.46;100;95479.85;;;;
2021/02/20 02:04:10;;;;;;;2.85;1.9;;;;;;;5.46;100;95479.85;;;;
2021/02/20 02:05:11;;;;;;;2.85;1.9;;;;;;;5.46;100;95479.85;;;;
2021/02/20 02:06:13;;;;;;;2.85;1.9;;;;;;;5.46;100;95479.85;;;;
2021/02/20 02:07:14;;;;;;;2.85;1.9;;;;;;;5.46;100;95479.85;;;;
2021/02/20 02:08:16;;;;;;;2.85;1.9;;;;;;;5.46;100;95479.85;;;;
2021/02/20 02:09:17;;;;;;;2.2;1.65;;;;;;;5.53;100;95477.51;;;;
2021/02/20 02:10:19;;;;;;;2.2;1.65;;;;;;;5.53;100;95477.51;;;;
2021/02/20 02:11:19;;;;;;;2.2;1.65;;;;;;;5.53;100;95477.51;;;;
2021/02/20 02:12:20;;;;;;;2.2;1.65;;;;;;;5.53;100;95477.51;;;;
2021/02/20 02:13:20;;;;;;;2.2;1.65;;;;;;;5.53;100;95477.51;;;;
2021/02/20 02:14:21;;;;;;;2.2;1.65;;;;;;;5.53;100;95477.51;;;;
2021/02/20 02:15:22;;;;;;;2.2;1.65;;;;;;;5.53;100;95477.51;;;;
2021/02/20 02:16:22;;;;;;;2.2;1.65;;;;;;;5.53;100;95477.51;;;;
2021/02/20 02:17:39;;;;;;;2.2;1.65;;;;;;;5.53;100;95477.51;;;;
2021/02/20 02:18:48;;;;;;;2.2;1.65;;;;;;;5.53;100;95477.51;;;;
2021/02/20 02:19:53;;;;;;;3.450001;1.9;;;;;;;5.61;100;95471.99;;;;
2021/02/20 02:21:16;;;;;;;3.450001;1.9;;;;;;;5.61;100;95471.99;;;;
2021/02/20 02:22:37;;;;;;;3.450001;1.9;;;;;;;5.61;100;95471.99;;;;
2021/02/20 02:28:34;;;;;;;3.450001;1.9;;;;;;;5.61;100;95471.99;;;;
2021/02/20 02:29:42;;;;;;;3.450001;1.9;;;;;;;5.61;100;95471.99;;;;
2021/02/20 02:31:01;;;;;;;4.1;2.1;;;;;;;5.48;100;95467;;;;
2021/02/20 02:32:13;;;;;;;4.1;2.1;;;;;;;5.48;100;95467;;;;
2021/02/20 02:33:17;;;;;;;4.1;2.1;;;;;;;5.48;100;95467;;;;
2021/02/20 02:34:20;;;;;;;4.1;2.1;;;;;;;5.48;100;95467;;;;
2021/02/20 02:35:22;;;;;;;4.1;2.1;;;;;;;5.48;100;95467;;;;
2021/02/20 02:36:25;;;;;;;4.1;2.1;;;;;;;5.48;100;95467;;;;
2021/02/20 02:37:27;;;;;;;4.1;2.1;;;;;;;5.48;100;95467;;;;
2021/02/20 02:38:34;;;;;;;4.1;2.1;;;;;;;5.48;100;95467;;;;
2021/02/20 02:39:37;;;;;;;4.1;2.1;;;;;;;5.48;100;95467;;;;
2021/02/20 02:40:45;;;;;;;4.1;2.1;;;;;;;5.48;100;95467;;;;
2021/02/20 02:41:50;;;;;;;3.45;2.15;;;;;;;5.25;100;95467.41;;;;
2021/02/20 02:42:52;;;;;;;3.45;2.15;;;;;;;5.25;100;95467.41;;;;
2021/02/20 02:43:56;;;;;;;3.45;2.15;;;;;;;5.25;100;95467.41;;;;
2021/02/20 02:44:59;;;;;;;3.45;2.15;;;;;;;5.25;100;95467.41;;;;
2021/02/20 02:46:02;;;;;;;3.45;2.15;;;;;;;5.25;100;95467.41;;;;
2021/02/20 02:47:06;;;;;;;3.45;2.15;;;;;;;5.25;100;95467.41;;;;
2021/02/20 02:48:07;;;;;;;3.45;2.15;;;;;;;5.25;100;95467.41;;;;
2021/02/20 02:49:09;;;;;;;3.45;2.15;;;;;;;5.25;100;95467.41;;;;
2021/02/20 02:50:09;;;;;;;3.45;2.15;;;;;;;5.25;100;95467.41;;;;
2021/02/20 02:51:13;;;;;;;3.45;2.15;;;;;;;5.25;100;95467.41;;;;
2021/02/20 02:52:15;;;;;;;3.6;2;;;;;;;5.08;100;95464.31;;;;
2021/02/20 02:53:19;;;;;;;3.6;2;;;;;;;5.08;100;95464.31;;;;
2021/02/20 02:54:21;;;;;;;3.6;2;;;;;;;5.08;100;95464.31;;;;
2021/02/20 02:55:23;;;;;;;3.6;2;;;;;;;5.08;100;95464.31;;;;
2021/02/20 02:56:25;;;;;;;3.6;2;;;;;;;5.08;100;95464.31;;;;
2021/02/20 02:57:27;;;;;;;3.6;2;;;;;;;5.08;100;95464.31;;;;
2021/02/20 02:58:29;;;;;;;3.6;2;;;;;;;5.08;100;95464.31;;;;
2021/02/20 02:59:32;;;;;;;3.6;2;;;;;;;5.08;100;95464.31;;;;
2021/02/20 03:00:34;;;;;;;3.6;2;;;;;;;5.08;100;95464.31;;;;
2021/02/20 03:01:36;;;;;;;3.6;2;;;;;;;5.08;100;95464.31;;;;
2021/02/20 03:02:38;;;;;;;3.45;2;;;;;;;4.7;100;95461.21;;;;
2021/02/20 03:03:39;;;;;;;3.45;2;;;;;;;4.7;100;95461.21;;;;
2021/02/20 03:04:43;;;;;;;3.45;2;;;;;;;4.7;100;95461.21;;;;
2021/02/20 03:05:45;;;;;;;3.45;2;;;;;;;4.7;100;95461.21;;;;
2021/02/20 03:06:47;;;;;;;3.45;2;;;;;;;4.7;100;95461.21;;;;
2021/02/20 03:07:50;;;;;;;3.45;2;;;;;;;4.7;100;95461.21;;;;
2021/02/20 03:08:52;;;;;;;3.45;2;;;;;;;4.7;100;95461.21;;;;
2021/02/20 03:09:56;;;;;;;3.45;2;;;;;;;4.7;100;95461.21;;;;
2021/02/20 03:10:56;;;;;;;3.45;2;;;;;;;4.7;100;95461.21;;;;
2021/02/20 03:11:57;;;;;;;3.45;2;;;;;;;4.7;100;95461.21;;;;
2021/02/20 03:12:58;;;;;;;3.45;2;;;;;;;4.7;100;95461.21;;;;
2021/02/20 03:14:00;;;;;;;3.199999;2.2;;;;;;;4.26;100;95465.52;;;;
2021/02/20 03:15:01;;;;;;;3.199999;2.2;;;;;;;4.26;100;95465.52;;;;
2021/02/20 03:16:03;;;;;;;3.199999;2.2;;;;;;;4.26;100;95465.52;;;;
2021/02/20 03:17:05;;;;;;;3.199999;2.2;;;;;;;4.26;100;95465.52;;;;
2021/02/20 03:18:08;;;;;;;3.199999;2.2;;;;;;;4.26;100;95465.52;;;;
2021/02/20 03:19:09;;;;;;;3.199999;2.2;;;;;;;4.26;100;95465.52;;;;
2021/02/20 03:20:10;;;;;;;3.199999;2.2;;;;;;;4.26;100;95465.52;;;;
2021/02/20 03:21:12;;;;;;;3.199999;2.2;;;;;;;4.26;100;95465.52;;;;
2021/02/20 03:22:14;;;;;;;3.199999;2.2;;;;;;;4.26;100;95465.52;;;;
2021/02/20 03:23:15;;;;;;;3.199999;2.2;;;;;;;4.26;100;95465.52;;;;
2021/02/20 03:24:16;;;;;;;3.2;1.7;;;;;;;3.91;100;95473.5;;;;
2021/02/20 03:25:17;;;;;;;3.2;1.7;;;;;;;3.91;100;95473.5;;;;
2021/02/20 03:26:19;;;;;;;3.2;1.7;;;;;;;3.91;100;95473.5;;;;
2021/02/20 03:27:20;;;;;;;3.2;1.7;;;;;;;3.91;100;95473.5;;;;
2021/02/20 03:28:21;;;;;;;3.2;1.7;;;;;;;3.91;100;95473.5;;;;
2021/02/20 03:29:23;;;;;;;3.2;1.7;;;;;;;3.91;100;95473.5;;;;
2021/02/20 03:30:24;;;;;;;3.2;1.7;;;;;;;3.91;100;95473.5;;;;
2021/02/20 03:31:27;;;;;;;3.2;1.7;;;;;;;3.91;100;95473.5;;;;
2021/02/20 03:32:28;;;;;;;3.2;1.7;;;;;;;3.91;100;95473.5;;;;
2021/02/20 03:33:28;;;;;;;3.2;1.7;;;;;;;3.91;100;95473.5;;;;
2021/02/20 03:34:30;;;;;;;3.2;1.7;;;;;;;3.91;100;95473.5;;;;
2021/02/20 03:35:32;;;;;;;3.85;1.8;;;;;;;3.61;100;95463.04;;;;
2021/02/20 03:36:33;;;;;;;3.85;1.8;;;;;;;3.61;100;95463.04;;;;
2021/02/20 03:37:36;;;;;;;3.85;1.8;;;;;;;3.61;100;95463.04;;;;
2021/02/20 03:38:38;;;;;;;3.85;1.8;;;;;;;3.61;100;95463.04;;;;
2021/02/20 03:39:40;;;;;;;3.85;1.8;;;;;;;3.61;100;95463.04;;;;
2021/02/20 03:40:41;;;;;;;3.85;1.8;;;;;;;3.61;100;95463.04;;;;
2021/02/20 03:41:44;;;;;;;3.85;1.8;;;;;;;3.61;100;95463.04;;;;
2021/02/20 03:42:46;;;;;;;3.85;1.8;;;;;;;3.61;100;95463.04;;;;
2021/02/20 03:43:50;;;;;;;3.85;1.8;;;;;;;3.61;100;95463.04;;;;
2021/02/20 03:44:54;;;;;;;3.85;1.8;;;;;;;3.61;100;95463.04;;;;
2021/02/20 03:45:56;;;;;;;3.5;1.8;;;;;;;3.29;100;95460.91;;;;
2021/02/20 03:47:01;;;;;;;3.5;1.8;;;;;;;3.29;100;95460.91;;;;
2021/02/20 03:48:02;;;;;;;3.5;1.8;;;;;;;3.29;100;95460.91;;;;
2021/02/20 03:49:06;;;;;;;3.5;1.8;;;;;;;3.29;100;95460.91;;;;
2021/02/20 03:50:08;;;;;;;3.5;1.8;;;;;;;3.29;100;95460.91;;;;
2021/02/20 03:51:12;;;;;;;3.5;1.8;;;;;;;3.29;100;95460.91;;;;
2021/02/20 03:52:13;;;;;;;3.5;1.8;;;;;;;3.29;100;95460.91;;;;
2021/02/20 03:53:15;;;;;;;3.5;1.8;;;;;;;3.29;100;95460.91;;;;
2021/02/20 03:54:18;;;;;;;3.5;1.8;;;;;;;3.29;100;95460.91;;;;
2021/02/20 03:55:19;;;;;;;3.5;1.8;;;;;;;3.29;100;95460.91;;;;
2021/02/20 03:56:20;;;;;;;2.85;1.9;;;;;;;3.18;100;95457.79;;;;
2021/02/20 03:57:21;;;;;;;2.85;1.9;;;;;;;3.18;100;95457.79;;;;
2021/02/20 03:58:24;;;;;;;2.85;1.9;;;;;;;3.18;100;95457.79;;;;
2021/02/20 03:59:26;;;;;;;2.85;1.9;;;;;;;3.18;100;95457.79;;;;
2021/02/20 04:00:27;;;;;;;2.85;1.9;;;;;;;3.18;100;95457.79;;;;
2021/02/20 04:01:30;;;;;;;2.85;1.9;;;;;;;3.18;100;95457.79;;;;
2021/02/20 04:02:31;;;;;;;2.85;1.9;;;;;;;3.18;100;95457.79;;;;
2021/02/20 04:03:32;;;;;;;2.85;1.9;;;;;;;3.18;100;95457.79;;;;
2021/02/20 04:04:33;;;;;;;2.85;1.9;;;;;;;3.18;100;95457.79;;;;
2021/02/20 04:05:33;;;;;;;2.85;1.9;;;;;;;3.18;100;95457.79;;;;
2021/02/20 04:06:34;;;;;;;2.6;1.7;;;;;;;3.3;100;95448.28;;;;
2021/02/20 04:07:35;;;;;;;2.6;1.7;;;;;;;3.3;100;95448.28;;;;
2021/02/20 04:08:36;;;;;;;2.6;1.7;;;;;;;3.3;100;95448.28;;;;
2021/02/20 04:09:37;;;;;;;2.6;1.7;;;;;;;3.3;100;95448.28;;;;
2021/02/20 04:10:38;;;;;;;2.6;1.7;;;;;;;3.3;100;95448.28;;;;
2021/02/20 04:11:40;;;;;;;2.6;1.7;;;;;;;3.3;100;95448.28;;;;
2021/02/20 04:12:44;;;;;;;2.6;1.7;;;;;;;3.3;100;95448.28;;;;
2021/02/20 04:13:45;;;;;;;2.6;1.7;;;;;;;3.3;100;95448.28;;;;
2021/02/20 04:14:46;;;;;;;2.6;1.7;;;;;;;3.3;100;95448.28;;;;
2021/02/20 04:15:48;;;;;;;2.6;1.7;;;;;;;3.3;100;95448.28;;;;
2021/02/20 04:16:50;;;;;;;2.6;1.7;;;;;;;3.3;100;95448.28;;;;
2021/02/20 04:17:50;;;;;;;2.65;1.8;;;;;;;3.32;100;95450.68;;;;
2021/02/20 04:18:51;;;;;;;2.65;1.8;;;;;;;3.32;100;95450.68;;;;
2021/02/20 04:19:55;;;;;;;2.65;1.8;;;;;;;3.32;100;95450.68;;;;
2021/02/20 04:20:56;;;;;;;2.65;1.8;;;;;;;3.32;100;95450.68;;;;
2021/02/20 04:21:56;;;;;;;2.65;1.8;;;;;;;3.32;100;95450.68;;;;
2021/02/20 04:22:57;;;;;;;2.65;1.8;;;;;;;3.32;100;95450.68;;;;
2021/02/20 04:23:57;;;;;;;2.65;1.8;;;;;;;3.32;100;95450.68;;;;
2021/02/20 04:24:58;;;;;;;2.65;1.8;;;;;;;3.32;100;95450.68;;;;
2021/02/20 04:25:58;;;;;;;2.65;1.8;;;;;;;3.32;100;95450.68;;;;
2021/02/20 04:26:59;;;;;;;2.65;1.8;;;;;;;3.32;100;95450.68;;;;
2021/02/20 04:28:00;;;;;;;3.85;1.55;;;;;;;3.28;100;95450.73;;;;
2021/02/20 04:29:00;;;;;;;3.85;1.55;;;;;;;3.28;100;95450.73;;;;
2021/02/20 04:30:01;;;;;;;3.85;1.55;;;;;;;3.28;100;95450.73;;;;
2021/02/20 04:31:01;;;;;;;3.85;1.55;;;;;;;3.28;100;95450.73;;;;
2021/02/20 04:32:02;;;;;;;3.85;1.55;;;;;;;3.28;100;95450.73;;;;
2021/02/20 04:33:03;;;;;;;3.85;1.55;;;;;;;3.28;100;95450.73;;;;
2021/02/20 04:34:04;;;;;;;3.85;1.55;;;;;;;3.28;100;95450.73;;;;
2021/02/20 04:35:05;;;;;;;3.85;1.55;;;;;;;3.28;100;95450.73;;;;
2021/02/20 04:36:10;;;;;;;3.85;1.55;;;;;;;3.28;100;95450.73;;;;
2021/02/20 04:37:10;;;;;;;3.85;1.55;;;;;;;3.28;100;95450.73;;;;
2021/02/20 04:38:11;;;;;;;3.85;1.55;;;;;;;3.28;100;95450.73;;;;
2021/02/20 04:39:11;;;;;;;2.8;1.7;;;;;;;3.12;100;95449.11;;;;
2021/02/20 04:40:12;;;;;;;2.8;1.7;;;;;;;3.12;100;95449.11;;;;
2021/02/20 04:41:15;;;;;;;2.8;1.7;;;;;;;3.12;100;95449.11;;;;
2021/02/20 04:42:16;;;;;;;2.8;1.7;;;;;;;3.12;100;95449.11;;;;
2021/02/20 04:43:16;;;;;;;2.8;1.7;;;;;;;3.12;100;95449.11;;;;
2021/02/20 04:44:17;;;;;;;2.8;1.7;;;;;;;3.12;100;95449.11;;;;
2021/02/20 04:45:17;;;;;;;2.8;1.7;;;;;;;3.12;100;95449.11;;;;
2021/02/20 04:46:19;;;;;;;2.8;1.7;;;;;;;3.12;100;95449.11;;;;
2021/02/20 04:47:19;;;;;;;2.8;1.7;;;;;;;3.12;100;95449.11;;;;
2021/02/20 04:48:20;;;;;;;2.8;1.7;;;;;;;3.12;100;95449.11;;;;
2021/02/20 04:49:20;;;;;;;2.9;1.7;;;;;;;2.99;100;95441.85;;;;
2021/02/20 04:50:21;;;;;;;2.9;1.7;;;;;;;2.99;100;95441.85;;;;
2021/02/20 04:51:22;;;;;;;2.9;1.7;;;;;;;2.99;100;95441.85;;;;
2021/02/20 04:52:23;;;;;;;2.9;1.7;;;;;;;2.99;100;95441.85;;;;
2021/02/20 04:53:23;;;;;;;2.9;1.7;;;;;;;2.99;100;95441.85;;;;
2021/02/20 04:54:24;;;;;;;2.9;1.7;;;;;;;2.99;100;95441.85;;;;
2021/02/20 04:55:24;;;;;;;2.9;1.7;;;;;;;2.99;100;95441.85;;;;
2021/02/20 04:56:25;;;;;;;2.9;1.7;;;;;;;2.99;100;95441.85;;;;
2021/02/20 04:57:25;;;;;;;2.9;1.7;;;;;;;2.99;100;95441.85;;;;
2021/02/20 04:58:26;;;;;;;2.9;1.7;;;;;;;2.99;100;95441.85;;;;
2021/02/20 04:59:26;;;;;;;2.9;1.7;;;;;;;2.99;100;95441.85;;;;
2021/02/20 05:00:27;;;;;;;2.900001;1.6;;;;;;;2.83;100;95435.38;;;;
2021/02/20 05:01:27;;;;;;;2.900001;1.6;;;;;;;2.83;100;95435.38;;;;
2021/02/20 05:02:28;;;;;;;2.900001;1.6;;;;;;;2.83;100;95435.38;;;;
2021/02/20 05:03:28;;;;;;;2.900001;1.6;;;;;;;2.83;100;95435.38;;;;
2021/02/20 05:04:29;;;;;;;2.900001;1.6;;;;;;;2.83;100;95435.38;;;;
2021/02/20 05:05:29;;;;;;;2.900001;1.6;;;;;;;2.83;100;95435.38;;;;
2021/02/20 05:06:30;;;;;;;2.900001;1.6;;;;;;;2.83;100;95435.38;;;;
2021/02/20 05:07:30;;;;;;;2.900001;1.6;;;;;;;2.83;100;95435.38;;;;
2021/02/20 05:08:32;;;;;;;2.900001;1.6;;;;;;;2.83;100;95435.38;;;;
2021/02/20 05:09:32;;;;;;;2.900001;1.6;;;;;;;2.83;100;95435.38;;;;
2021/02/20 05:10:33;;;;;;;2.900001;1.6;;;;;;;2.83;100;95435.38;;;;
2021/02/20 05:11:33;;;;;;;4.55;1.9;;;;;;;2.6;100;95433.74;;;;
2021/02/20 05:12:34;;;;;;;4.55;1.9;;;;;;;2.6;100;95433.74;;;;
2021/02/20 05:13:35;;;;;;;4.55;1.9;;;;;;;2.6;100;95433.74;;;;
2021/02/20 05:14:35;;;;;;;4.55;1.9;;;;;;;2.6;100;95433.74;;;;
2021/02/20 05:15:36;;;;;;;4.55;1.9;;;;;;;2.6;100;95433.74;;;;
2021/02/20 05:16:36;;;;;;;4.55;1.9;;;;;;;2.6;100;95433.74;;;;
2021/02/20 05:17:37;;;;;;;4.55;1.9;;;;;;;2.6;100;95433.74;;;;
2021/02/20 05:18:37;;;;;;;4.55;1.9;;;;;;;2.6;100;95433.74;;;;
2021/02/20 05:19:38;;;;;;;4.55;1.9;;;;;;;2.6;100;95433.74;;;;
2021/02/20 05:20:38;;;;;;;4.55;1.9;;;;;;;2.6;100;95433.74;;;;
2021/02/20 05:21:39;;;;;;;5.150001;2;;;;;;;2.33;100;95423.29;;;;
2021/02/20 05:22:39;;;;;;;5.150001;2;;;;;;;2.33;100;95423.29;;;;
2021/02/20 05:23:40;;;;;;;5.150001;2;;;;;;;2.33;100;95423.29;;;;
2021/02/20 05:24:40;;;;;;;5.150001;2;;;;;;;2.33;100;95423.29;;;;
2021/02/20 05:25:41;;;;;;;5.150001;2;;;;;;;2.33;100;95423.29;;;;
2021/02/20 05:26:41;;;;;;;5.150001;2;;;;;;;2.33;100;95423.29;;;;
2021/02/20 05:27:42;;;;;;;5.150001;2;;;;;;;2.33;100;95423.29;;;;
2021/02/20 05:28:43;;;;;;;5.150001;2;;;;;;;2.33;100;95423.29;;;;
2021/02/20 05:29:44;;;;;;;5.150001;2;;;;;;;2.33;100;95423.29;;;;
2021/02/20 05:30:46;;;;;;;5.150001;2;;;;;;;2.33;100;95423.29;;;;
2021/02/20 05:31:46;;;;;;;5.150001;2;;;;;;;2.33;100;95423.29;;;;
2021/02/20 05:32:46;;;;;;;2.65;1.7;;;;;;;2.13;100;95428.31;;;;
2021/02/20 05:33:47;;;;;;;2.65;1.7;;;;;;;2.13;100;95428.31;;;;
2021/02/20 05:34:48;;;;;;;2.65;1.7;;;;;;;2.13;100;95428.31;;;;
2021/02/20 05:35:48;;;;;;;2.65;1.7;;;;;;;2.13;100;95428.31;;;;
2021/02/20 05:36:49;;;;;;;2.65;1.7;;;;;;;2.13;100;95428.31;;;;
2021/02/20 05:37:49;;;;;;;2.65;1.7;;;;;;;2.13;100;95428.31;;;;
2021/02/20 05:38:50;;;;;;;2.65;1.7;;;;;;;2.13;100;95428.31;;;;
2021/02/20 05:39:50;;;;;;;2.65;1.7;;;;;;;2.13;100;95428.31;;;;
2021/02/20 05:40:51;;;;;;;2.65;1.7;;;;;;;2.13;100;95428.31;;;;
2021/02/20 05:41:51;;;;;;;2.65;1.7;;;;;;;2.13;100;95428.31;;;;
2021/02/20 05:42:55;;;;;;;2.5;1.75;;;;;;;1.96;100;95425.87;;;;
2021/02/20 05:43:57;;;;;;;2.5;1.75;;;;;;;1.96;100;95425.87;;;;
2021/02/20 05:44:58;;;;;;;2.5;1.75;;;;;;;1.96;100;95425.87;;;;
2021/02/20 05:45:59;;;;;;;2.5;1.75;;;;;;;1.96;100;95425.87;;;;
2021/02/20 05:47:01;;;;;;;2.5;1.75;;;;;;;1.96;100;95425.87;;;;
2021/02/20 05:48:04;;;;;;;2.5;1.75;;;;;;;1.96;100;95425.87;;;;
2021/02/20 05:49:07;;;;;;;2.5;1.75;;;;;;;1.96;100;95425.87;;;;
2021/02/20 05:50:10;;;;;;;2.5;1.75;;;;;;;1.96;100;95425.87;;;;
2021/02/20 05:51:13;;;;;;;2.5;1.75;;;;;;;1.96;100;95425.87;;;;
2021/02/20 05:52:15;;;;;;;2.5;1.75;;;;;;;1.96;100;95425.87;;;;
2021/02/20 05:53:19;;;;;;;3.15;1.9;;;;;;;1.71;100;95429.33;;;;
2021/02/20 05:54:20;;;;;;;3.15;1.9;;;;;;;1.71;100;95429.33;;;;
2021/02/20 05:55:22;;;;;;;3.15;1.9;;;;;;;1.71;100;95429.33;;;;
2021/02/20 05:56:23;;;;;;;3.15;1.9;;;;;;;1.71;100;95429.33;;;;
2021/02/20 05:57:23;;;;;;;3.15;1.9;;;;;;;1.71;100;95429.33;;;;
2021/02/20 05:58:24;;;;;;;3.15;1.9;;;;;;;1.71;100;95429.33;;;;
2021/02/20 05:59:27;;;;;;;3.15;1.9;;;;;;;1.71;100;95429.33;;;;
2021/02/20 06:00:28;;;;;;;3.15;1.9;;;;;;;1.71;100;95429.33;;;;
2021/02/20 06:01:29;;;;;;;3.15;1.9;;;;;;;1.71;100;95429.33;;;;
2021/02/20 06:02:29;;;;;;;3.15;1.9;;;;;;;1.71;100;95429.33;;;;
2021/02/20 06:03:30;;;;;;;3.15;1.9;;;;;;;1.71;100;95429.33;;;;
2021/02/20 06:04:30;;;;;;;4.550001;2.05;;;;;;;1.54;100;95424.66;;;;
2021/02/20 06:05:31;;;;;;;4.550001;2.05;;;;;;;1.54;100;95424.66;;;;
2021/02/20 06:06:32;;;;;;;4.550001;2.05;;;;;;;1.54;100;95424.66;;;;
2021/02/20 06:07:33;;;;;;;4.550001;2.05;;;;;;;1.54;100;95424.66;;;;
2021/02/20 06:08:33;;;;;;;4.550001;2.05;;;;;;;1.54;100;95424.66;;;;
2021/02/20 06:09:35;;;;;;;4.550001;2.05;;;;;;;1.54;100;95424.66;;;;
2021/02/20 06:10:35;;;;;;;4.550001;2.05;;;;;;;1.54;100;95424.66;;;;
2021/02/20 06:11:36;;;;;;;4.550001;2.05;;;;;;;1.54;100;95424.66;;;;
2021/02/20 06:12:36;;;;;;;4.550001;2.05;;;;;;;1.54;100;95424.66;;;;
2021/02/20 06:13:37;;;;;;;4.550001;2.05;;;;;;;1.54;100;95424.66;;;;
2021/02/20 06:14:40;;;;;;;4.550001;2.05;;;;;;;1.54;100;95424.66;;;;
2021/02/20 06:15:42;;;;;;;3.85;1.85;;;;;;;1.42;100;95434.94;;;;
2021/02/20 06:17:02;;;;;;;3.85;1.85;;;;;;;1.42;100;95434.94;;;;
2021/02/20 06:18:03;;;;;;;3.85;1.85;;;;;;;1.42;100;95434.94;;;;
2021/02/20 06:19:08;;;;;;;3.85;1.85;;;;;;;1.42;100;95434.94;;;;
2021/02/20 06:20:09;;;;;;;3.85;1.85;;;;;;;1.42;100;95434.94;;;;
2021/02/20 06:21:19;;;;;;;3.85;1.85;;;;;;;1.42;100;95434.94;;;;
2021/02/20 06:22:20;;;;;;;3.85;1.85;;;;;;;1.42;100;95434.94;;;;
2021/02/20 06:23:22;;;;;;;3.85;1.85;;;;;;;1.42;100;95434.94;;;;
2021/02/20 06:24:26;;;;;;;3.85;1.85;;;;;;;1.42;100;95434.94;;;;
2021/02/20 06:25:28;;;;;;;3.85;1.85;;;;;;;1.42;100;95434.94;;;;
2021/02/20 06:26:28;;;;;;;3.3;1.85;;;;;;;1.35;100;95445.15;;;;
2021/02/20 06:27:29;;;;;;;3.3;1.85;;;;;;;1.35;100;95445.15;;;;
2021/02/20 06:28:32;;;;;;;3.3;1.85;;;;;;;1.35;100;95445.15;;;;
2021/02/20 06:29:43;;;;;;;3.3;1.85;;;;;;;1.35;100;95445.15;;;;
2021/02/20 06:31:00;;;;;;;3.3;1.85;;;;;;;1.35;100;95445.15;;;;
2021/02/20 06:32:18;;;;;;;3.3;1.85;;;;;;;1.35;100;95445.15;;;;
2021/02/20 06:33:23;;;;;;;3.3;1.85;;;;;;;1.35;100;95445.15;;;;